Data for 08/25/2010

Time Sea-Level Adjusted Pressure Absolute Pressure Temperature Relative Humidity Dew Point   
(mb) (inHg) (mb) (inHg) (C) (F) (%) (C) (F)
00:05 1025 30.27 854 25.22 14.1 57.4 44 2 35.6
00:10 1025 30.27 854 25.22 14.1 57.4 43 1.9 35.4
00:15 1025 30.27 854 25.22 14.2 57.6 43 1.9 35.5
00:20 1025 30.27 854 25.22 14.2 57.5 43 1.9 35.4
00:25 1025 30.27 855 25.25 14.2 57.5 43 1.9 35.4
00:30 1025 30.27 855 25.25 14.2 57.5 43 1.9 35.5
00:35 1025 30.27 855 25.25 14.1 57.3 43 1.8 35.3
00:40 1025 30.27 854 25.22 14.1 57.3 44 1.9 35.5
00:45 1025 30.27 854 25.22 14.1 57.4 43 1.8 35.2
00:50 1025 30.27 854 25.22 14.1 57.3 43 1.9 35.5
00:55 1025 30.27 854 25.22 14 57.2 43 1.8 35.2
01:00 1025 30.27 855 25.25 13.9 57 44 2 35.6
01:05 1025 30.27 855 25.25 13.7 56.7 45 2 35.5
01:10 1025 30.27 855 25.25 13.7 56.7 44 1.7 35.1
01:15 1025 30.27 854 25.22 13.8 56.8 45 2.3 36.1
01:20 1025 30.27 854 25.22 13.7 56.6 45 2.1 35.8
01:25 1025 30.27 854 25.22 13.8 56.8 45 2 35.6
01:30 1025 30.27 854 25.22 13.8 56.8 45 2 35.7
01:35 1025 30.27 854 25.22 13.9 56.9 44 1.8 35.3
01:40 1025 30.27 854 25.22 14.1 57.5 42 1.6 34.8
01:45 1025 30.27 854 25.22 14.1 57.4 44 2.1 35.9
01:50 1025 30.27 854 25.22 14.1 57.3 46 2.8 37
01:55 1025 30.27 854 25.22 13.6 56.5 47 2.5 36.5
02:00 1025 30.27 854 25.22 13.8 56.8 47 2.6 36.7
02:05 1025 30.27 854 25.22 13.9 57 44 2 35.6
02:10 1025 30.27 854 25.22 14.3 57.7 43 2.1 35.7
02:15 1025 30.27 854 25.22 14.1 57.4 44 2.2 36
02:20 1025 30.27 854 25.22 14.2 57.6 45 2.6 36.6
02:25 1025 30.27 854 25.22 13.7 56.7 49 3.2 37.8
02:30 1025 30.27 854 25.22 13.1 55.6 52 3.6 38.5
02:35 1025 30.27 854 25.22 12.6 54.7 53 3.3 38
02:40 1025 30.27 854 25.22 12.4 54.4 53 3.2 37.8
02:45 1025 30.27 854 25.22 12.5 54.4 53 3.3 37.9
02:50 1025 30.27 854 25.22 12.4 54.4 52 2.9 37.2
02:55 1025 30.27 854 25.22 12.6 54.6 53 3.3 37.9
03:00 1025 30.27 854 25.22 12.3 54.1 54 3.3 37.9
03:05 1025 30.27 854 25.22 12.3 54.1 53 3 37.5
03:10 1025 30.27 854 25.22 12.3 54.2 52 2.9 37.2
03:15 1025 30.27 854 25.22 12.6 54.7 51 2.9 37.2
03:20 1025 30.27 854 25.22 13.1 55.7 48 2.4 36.2
03:25 1025 30.27 854 25.22 13.4 56.1 48 2.7 36.9
03:30 1025 30.27 854 25.22 13.2 55.7 47 2.3 36.1
03:35 1025 30.27 854 25.22 13 55.3 49 2.6 36.7
03:40 1025 30.27 854 25.22 12.6 54.7 50 2.5 36.5
03:45 1025 30.27 854 25.22 12.4 54.3 52 2.9 37.3
03:50 1025 30.27 854 25.22 12.2 53.9 53 2.9 37.1
03:55 1025 30.27 854 25.22 12.1 53.8 51 2.3 36.1
04:00 1025 30.27 854 25.22 12.2 53.9 53 2.9 37.2
04:05 1025 30.27 854 25.22 11.9 53.5 52 2.4 36.4
04:10 1025 30.27 854 25.22 12.1 53.8 51 2.4 36.3
04:15 1025 30.27 854 25.22 12.2 54 51 2.4 36.3
04:20 1025 30.27 854 25.22 12.2 53.9 50 2.3 36.1
04:25 1025 30.27 854 25.22 12.2 53.9 53 2.8 37
04:30 1025 30.27 854 25.22 12 53.6 52 2.6 36.7
04:35 1025 30.27 854 25.22 11.9 53.5 53 2.6 36.7
04:40 1025 30.27 854 25.22 12.2 53.9 52 2.5 36.6
04:45 1025 30.27 854 25.22 12.3 54.2 49 2.1 35.8
04:50 1025 30.27 854 25.22 12.7 54.9 49 2.2 36
04:55 1025 30.27 854 25.22 12.9 55.2 49 2.5 36.5
05:00 1025 30.27 854 25.22 12.9 55.2 48 2.3 36.2
05:05 1025 30.27 854 25.22 12.8 55 49 2.4 36.3
05:10 1025 30.27 854 25.22 12.7 54.9 50 2.7 36.9
05:15 1025 30.27 854 25.22 12.5 54.5 51 2.6 36.6
05:20 1025 30.27 854 25.22 12.4 54.3 51 2.7 36.8
05:25 1025 30.27 854 25.22 12.2 54 52 2.7 36.8
05:30 1025 30.27 854 25.22 12.2 53.9 51 2.5 36.5
05:35 1025 30.27 854 25.22 12.2 54 51 2.4 36.4
05:40 1025 30.27 854 25.22 12.4 54.4 51 2.7 36.8
05:45 1025 30.27 854 25.22 12.2 54 52 2.7 36.9
05:50 1025 30.27 854 25.22 12 53.6 52 2.6 36.7
05:55 1025 30.27 854 25.22 12 53.5 53 2.7 36.9
06:00 1025 30.27 854 25.22 11.8 53.3 53 2.7 36.9
06:05 1025 30.27 854 25.22 11.7 53 54 2.7 36.9
06:10 1025 30.27 854 25.22 11.6 52.9 53 2.5 36.5
06:15 1025 30.27 854 25.22 11.8 53.2 53 2.4 36.4
06:20 1025 30.27 854 25.22 11.9 53.3 53 2.5 36.5
06:25 1025 30.27 854 25.22 11.9 53.5 52 2.5 36.5
06:30 1025 30.27 854 25.22 12 53.6 52 2.5 36.6
06:35 1025 30.27 854 25.22 11.8 53.3 53 2.7 36.9
06:40 1025 30.27 854 25.22 11.7 53 53 2.6 36.7
06:45 1025 30.27 854 25.22 11.7 53 54 2.8 37
06:50 1025 30.27 854 25.22 11.5 52.7 54 2.7 36.8
06:55 1025 30.27 854 25.22 11.4 52.5 54 2.5 36.6
07:00 1025 30.27 854 25.22 11.5 52.6 55 2.8 37
07:05 1025 30.27 854 25.22 11.4 52.4 56 2.9 37.2
07:10 1025 30.27 854 25.22 11.6 52.8 55 2.8 37
07:15 1025 30.27 854 25.22 12.1 53.8 52 2.7 36.9
07:20 1025 30.27 854 25.22 11.8 53.2 53 2.5 36.6
07:25 1025 30.27 854 25.22 12.3 54.1 52 2.7 36.9
07:30 1025 30.27 854 25.22 12.1 53.9 54 3.2 37.8
07:35 1025 30.27 854 25.22 11.8 53.2 56 3.3 38
07:40 1025 30.27 854 25.22 11.7 53.1 54 2.8 37
07:45 1025 30.27 854 25.22 12.2 53.9 53 3 37.4
07:50 1025 30.27 854 25.22 12.6 54.6 52 3.2 37.7
07:55 1025 30.27 854 25.22 12.7 54.8 51 3 37.3
08:00 1025 30.27 854 25.22 13.1 55.6 50 3.1 37.6
08:05 1025 30.27 854 25.22 13.3 55.9 51 3.5 38.2
08:10 1025 30.27 854 25.22 13.6 56.5 51 3.7 38.6
08:15 1025 30.27 854 25.22 14 57.1 49 3.6 38.5
08:20 1025 30.27 854 25.22 14.3 57.7 48 3.6 38.4
08:25 1025 30.27 854 25.22 14.7 58.4 49 4 39.3
08:30 1025 30.27 854 25.22 15.1 59.2 48 4.2 39.6
08:35 1025 30.27 854 25.22 15.4 59.7 47 4.3 39.7
08:40 1025 30.27 854 25.22 15.8 60.4 46 4.4 39.9
08:45 1025 30.27 854 25.22 15.7 60.3 48 4.7 40.5
08:50 1025 30.27 854 25.22 16.1 61 46 4.5 40.2
08:55 1025 30.27 854 25.22 16.8 62.2 44 4.5 40.2
09:00 1025 30.27 854 25.22 16.7 62 43 4 39.2
09:05 1025 30.27 854 25.22 16.7 62 39 2.7 36.9
09:10 1025 30.27 854 25.22 17.7 63.8 37 2.9 37.3
09:15 1025 30.27 854 25.22 18.2 64.7 38 3.6 38.5
09:20 1025 30.27 854 25.22 18.2 64.8 34 2.3 36.1
09:25 1025 30.27 854 25.22 19.1 66.3 33 2.7 36.8
09:30 1025 30.27 854 25.22 19.1 66.3 33 2.8 37
09:35 1025 30.27 854 25.22 18.8 65.8 34 2.7 36.9
09:40 1025 30.27 854 25.22 18.5 65.4 33 2.2 35.9
09:45 1025 30.27 854 25.22 18.9 66 33 2.5 36.4
09:50 1025 30.27 854 25.22 20 67.9 30 2.1 35.8
09:55 1025 30.27 854 25.22 20.4 68.8 30 2.4 36.4
10:00 1024 30.24 854 25.22 20.5 68.8 31 3 37.4
10:05 1024 30.24 854 25.22 20.7 69.3 30 2.7 36.8
10:10 1024 30.24 854 25.22 21 69.8 29 2.3 36.1
10:15 1024 30.24 854 25.22 21.3 70.4 28 2.3 36.2
10:20 1024 30.24 854 25.22 21.8 71.2 28 2.7 36.9
10:25 1024 30.24 854 25.22 22.1 71.7 28 3 37.3
10:30 1024 30.24 854 25.22 21.8 71.2 29 3.3 38
10:35 1024 30.24 853 25.19 21.6 70.8 29 2.7 36.9
10:40 1024 30.24 853 25.19 22.3 72.1 29 3.5 38.3
10:45 1024 30.24 853 25.19 22.4 72.4 29 3.6 38.5
10:50 1024 30.24 853 25.19 22.1 71.8 30 3.8 38.9
10:55 1024 30.24 853 25.19 22.6 72.7 28 3.2 37.7
11:00 1024 30.24 853 25.19 22.7 72.9 30 4.3 39.8
11:05 1024 30.24 853 25.19 22.1 71.7 29 3.4 38.1
11:10 1024 30.24 853 25.19 22.9 73.1 28 3.6 38.4
11:15 1024 30.24 853 25.19 22.7 72.9 30 4.3 39.8
11:20 1024 30.24 853 25.19 22.3 72.1 31 4.6 40.3
11:25 1024 30.24 853 25.19 22.4 72.4 29 3.7 38.7
11:30 1024 30.24 853 25.19 23.2 73.8 29 4.2 39.6
11:35 1024 30.24 853 25.19 23.7 74.6 27 4 39.1
11:40 1024 30.24 853 25.19 24.1 75.3 28 4.4 40
11:45 1024 30.24 853 25.19 24.2 75.6 27 4.4 39.9
11:50 1024 30.24 853 25.19 24.3 75.7 28 4.7 40.4
11:55 1024 30.24 853 25.19 23.3 74 29 4.7 40.5
12:00 1023 30.21 853 25.19 23.5 74.2 28 4.4 39.8
12:05 1023 30.21 853 25.19 24.8 76.6 26 4.3 39.7
12:10 1023 30.21 853 25.19 25.4 77.6 26 4.8 40.6
12:15 1023 30.21 852 25.16 25.3 77.6 27 5.4 41.7
12:20 1023 30.21 852 25.16 24.9 76.8 28 5.4 41.8
12:25 1023 30.21 852 25.16 25.7 78.2 28 6.1 42.9
12:30 1023 30.21 852 25.16 25.2 77.4 28 5.6 42.1
12:35 1023 30.21 852 25.16 25.6 78 27 5.5 41.8
12:40 1023 30.21 852 25.16 25.9 78.6 27 5.5 42
12:45 1023 30.21 852 25.16 26 78.8 28 6.5 43.7
12:50 1023 30.21 852 25.16 25.4 77.7 28 5.6 42
12:55 1023 30.21 852 25.16 26.3 79.3 27 6.1 42.9
13:00 1023 30.21 852 25.16 26.7 80.1 27 6.5 43.7
13:05 1023 30.21 852 25.16 26.9 80.3 26 6.2 43.2
13:10 1023 30.21 852 25.16 26.3 79.3 28 6.7 44
13:15 1023 30.21 852 25.16 26.5 79.8 26 6 42.8
13:20 1023 30.21 852 25.16 27.2 81 26 6.5 43.8
13:25 1023 30.21 852 25.16 27.3 81.1 26 6.4 43.5
13:30 1022 30.18 852 25.16 27.6 81.7 26 6.5 43.6
13:35 1023 30.21 852 25.16 27.6 81.6 23 5.1 41.2
13:40 1023 30.21 852 25.16 27.5 81.6 24 5.5 41.9
13:45 1022 30.18 852 25.16 27.3 81.1 23 4.9 40.8
13:50 1022 30.18 852 25.16 27.2 80.9 25 5.8 42.5
13:55 1022 30.18 851 25.13 26.5 79.8 26 5.6 42.1
14:00 1022 30.18 851 25.13 27.2 80.9 25 5.5 41.9
14:05 1022 30.18 851 25.13 27.4 81.3 21 3.7 38.6
14:10 1022 30.18 851 25.13 28.2 82.8 21 4.2 39.6
14:15 1022 30.18 851 25.13 28.2 82.7 21 4.1 39.4
14:20 1022 30.18 851 25.13 28 82.5 20 3.3 37.9
14:25 1022 30.18 851 25.13 28.2 82.7 18 1.9 35.4
14:30 1022 30.18 851 25.13 28.7 83.6 20 3.8 38.9
14:35 1022 30.18 851 25.13 28.6 83.5 20 3.9 39.1
14:40 1022 30.18 851 25.13 28.8 83.8 18 2.6 36.7
14:45 1022 30.18 851 25.13 28.7 83.6 20 4 39.1
14:50 1022 30.18 851 25.13 28.1 82.6 18 2 35.6
14:55 1022 30.18 851 25.13 29 84.1 18 2.9 37.3
15:00 1022 30.18 851 25.13 29.8 85.7 18 3 37.5
15:05 1022 30.18 851 25.13 29.4 84.9 18 2.9 37.2
15:10 1022 30.18 851 25.13 29.6 85.2 17 2.4 36.2
15:15 1022 30.18 851 25.13 29.2 84.6 15 0.5 33
15:20 1022 30.18 851 25.13 29.9 85.8 17 2.4 36.4
15:25 1022 30.18 851 25.13 30.5 86.8 15 1.6 34.8
15:30 1021 30.15 851 25.13 30.4 86.8 17 3 37.4
15:35 1021 30.15 851 25.13 30 86.1 15 1.1 33.9
15:40 1021 30.15 851 25.13 31.1 88 15 1.7 35
15:45 1021 30.15 851 25.13 31.6 88.8 15 2.5 36.4
15:50 1021 30.15 851 25.13 30.9 87.5 15 1.5 34.6
15:55 1021 30.15 851 25.13 30.1 86.1 17 2.5 36.5
16:00 1021 30.15 850 25.1 30.9 87.6 15 1.9 35.4
16:05 1021 30.15 850 25.1 30.8 87.4 16 2.4 36.3
16:10 1021 30.15 850 25.1 30.8 87.4 15 1.5 34.6
16:15 1021 30.15 850 25.1 30.9 87.7 17 3.3 37.9
16:20 1021 30.15 850 25.1 30.2 86.3 16 1.6 34.8
16:25 1021 30.15 850 25.1 28.9 84.1 19 3 37.3
16:30 1021 30.15 850 25.1 29.3 84.7 18 2.9 37.1
16:35 1021 30.15 850 25.1 30.4 86.7 15 1.5 34.7
16:40 1021 30.15 850 25.1 31.1 88 15 2.1 35.8
16:45 1021 30.15 850 25.1 30.2 86.4 17 3 37.4
16:50 1021 30.15 850 25.1 29.8 85.6 16 1.9 35.4
16:55 1021 30.15 850 25.1 29.9 85.9 15 1 33.9
17:00 1021 30.15 850 25.1 30.7 87.2 17 3.2 37.8
17:05 1021 30.15 850 25.1 30.3 86.5 16 1.8 35.2
17:10 1021 30.15 850 25.1 30.4 86.8 16 2.1 35.9
17:15 1021 30.15 850 25.1 30.4 86.7 16 2.2 36
17:20 1021 30.15 850 25.1 30.3 86.5 18 3.5 38.3
17:25 1021 30.15 850 25.1 30.1 86.1 17 3 37.4
17:30 1021 30.15 850 25.1 30.3 86.6 17 2.7 36.8
17:35 1021 30.15 850 25.1 30 86.1 16 1.4 34.5
17:40 1021 30.15 850 25.1 30.7 87.3 15 1.8 35.2
17:45 1021 30.15 850 25.1 30.9 87.6 14 0.6 33.1
17:50 1021 30.15 850 25.1 30.5 86.8 15 0.8 33.5
17:55 1021 30.15 850 25.1 30.5 86.8 15 1.2 34.2
18:00 1021 30.15 850 25.1 30 85.9 15 1.3 34.3
18:05 1021 30.15 850 25.1 29.5 85.2 16 1.2 34.1
18:10 1021 30.15 850 25.1 29.3 84.8 16 1.3 34.4
18:15 1020 30.12 850 25.1 29.5 85 16 1 33.8
18:20 1021 30.15 850 25.1 29.8 85.7 17 2.3 36.2
18:25 1020 30.12 850 25.1 29.7 85.5 15 0.4 32.8
18:30 1020 30.12 850 25.1 29.4 84.8 17 1.8 35.2
18:35 1020 30.12 850 25.1 29 84.2 16 1 33.7
18:40 1020 30.12 850 25.1 28.7 83.6 16 0.6 33
18:45 1020 30.12 850 25.1 28.5 83.4 18 2.2 36
18:50 1020 30.12 850 25.1 28.5 83.3 18 2.2 35.9
18:55 1020 30.12 850 25.1 28.4 83.2 18 1.8 35.2
19:00 1020 30.12 850 25.1 28.4 83.1 17 1.4 34.5
19:05 1020 30.12 849 25.07 28.4 83 18 1.8 35.2
19:10 1020 30.12 849 25.07 28.3 82.9 18 1.9 35.4
19:15 1020 30.12 849 25.07 28.2 82.8 18 2 35.5
19:20 1020 30.12 849 25.07 28.1 82.6 19 2.3 36.2
19:25 1020 30.12 849 25.07 28 82.3 18 1.9 35.4
19:30 1020 30.12 849 25.07 27.9 82.3 19 2.5 36.6
19:35 1020 30.12 849 25.07 27.9 82.2 17 1.1 33.9
19:40 1020 30.12 849 25.07 27.9 82.2 22 4.7 40.4
19:45 1020 30.12 849 25.07 27.7 81.8 24 5.4 41.8
19:50 1020 30.12 849 25.07 27.4 81.3 26 6.5 43.7
19:55 1020 30.12 849 25.07 27.2 80.9 28 7.1 44.8
20:00 1020 30.12 849 25.07 26.1 79.1 30 7.4 45.4
20:05 1020 30.12 849 25.07 25.1 77.2 35 8.6 47.5
20:10 1020 30.12 849 25.07 24 75.3 38 9.2 48.5
20:15 1020 30.12 849 25.07 23.4 74 38 8.4 47.1
20:20 1020 30.12 849 25.07 22.8 73.1 35 6.8 44.2
20:25 1020 30.12 849 25.07 22.5 72.4 35 6.6 43.9
20:30 1020 30.12 849 25.07 22.1 71.8 34 5.9 42.6
20:35 1020 30.12 849 25.07 21.9 71.3 35 5.8 42.5
20:40 1020 30.12 849 25.07 21.6 71 35 5.8 42.4
20:45 1020 30.12 849 25.07 21.5 70.7 36 6 42.9
20:50 1020 30.12 850 25.1 21.4 70.4 39 7.2 44.9
20:55 1020 30.12 850 25.1 20.4 68.7 42 7.4 45.3
21:00 1020 30.12 850 25.1 19.8 67.7 41 6.5 43.8
21:05 1020 30.12 850 25.1 19.7 67.4 37 4.6 40.3
21:10 1020 30.12 850 25.1 19.6 67.3 41 6.1 42.9
21:15 1021 30.15 850 25.1 19.1 66.3 40 5.3 41.5
21:20 1021 30.15 850 25.1 19.1 66.3 39 5 41
21:25 1021 30.15 850 25.1 19.3 66.7 36 4 39.3
21:30 1021 30.15 850 25.1 19.7 67.5 33 3.1 37.5
21:35 1021 30.15 850 25.1 20.2 68.4 32 3.3 38
21:40 1021 30.15 850 25.1 20.3 68.6 33 3.5 38.4
21:45 1021 30.15 850 25.1 20 68 33 3.4 38.2
21:50 1021 30.15 850 25.1 19.8 67.6 34 3.5 38.3
21:55 1021 30.15 850 25.1 19.6 67.2 35 3.7 38.7
22:00 1021 30.15 850 25.1 19.4 66.9 35 3.9 39
22:05 1021 30.15 850 25.1 19.3 66.7 34 3.3 38
22:10 1021 30.15 850 25.1 19.2 66.6 34 3 37.4
22:15 1021 30.15 850 25.1 19.1 66.4 34 3.1 37.5
22:20 1021 30.15 850 25.1 19.1 66.3 34 3.1 37.5
22:25 1021 30.15 850 25.1 19 66.1 35 3.4 38.1
22:30 1021 30.15 850 25.1 18.8 65.9 34 2.7 36.8
22:35 1021 30.15 850 25.1 18.8 65.8 34 2.8 37.1
22:40 1021 30.15 850 25.1 19 66.2 32 1.9 35.4
22:45 1021 30.15 850 25.1 19.4 66.9 31 1.8 35.3
22:50 1021 30.15 850 25.1 19.3 66.8 31 2.1 35.8
22:55 1021 30.15 850 25.1 19.2 66.5 31 1.8 35.2
23:00 1021 30.15 850 25.1 19.2 66.5 32 2.1 35.7
23:05 1021 30.15 850 25.1 18.9 66.1 31 1.6 34.8
23:10 1021 30.15 850 25.1 18.9 65.9 32 1.9 35.4
23:15 1021 30.15 850 25.1 18.6 65.5 31 1.4 34.6
23:20 1021 30.15 850 25.1 18.9 65.9 31 1.3 34.4
23:25 1021 30.15 850 25.1 18.7 65.7 32 1.9 35.4
23:30 1021 30.15 850 25.1 18.6 65.5 37 3.7 38.7
23:35 1021 30.15 850 25.1 18.6 65.5 33 2 35.6
23:40 1021 30.15 850 25.1 18.4 65.1 33 2 35.6
23:45 1021 30.15 850 25.1 18.1 64.7 34 2.1 35.7
23:50 1021 30.15 850 25.1 18.1 64.5 32 1.2 34.1
23:55 1021 30.15 850 25.1 18.1 64.6 31 1.1 33.9
24:00 1021 30.15 850 25.1 17.8 64.1 33 1.5 34.7